sensor_id;sensor_type;location;lat;lon;timestamp;P1;durP1;ratioP1;P2;durP2;ratioP2
5454;SDS011;2750;49.050;9.250;2022-12-18T00:01:46;66.27;;;30.70;;
5454;SDS011;2750;49.050;9.250;2022-12-18T00:06:49;57.20;;;28.43;;
5454;SDS011;2750;49.050;9.250;2022-12-18T00:11:51;48.40;;;25.07;;
5454;SDS011;2750;49.050;9.250;2022-12-18T00:16:52;45.97;;;21.27;;
5454;SDS011;2750;49.050;9.250;2022-12-18T00:21:55;44.20;;;22.93;;
5454;SDS011;2750;49.050;9.250;2022-12-18T00:26:58;44.63;;;21.97;;
5454;SDS011;2750;49.050;9.250;2022-12-18T00:31:59;58.07;;;26.20;;
5454;SDS011;2750;49.050;9.250;2022-12-18T00:37:02;73.40;;;34.13;;
5454;SDS011;2750;49.050;9.250;2022-12-18T00:42:03;60.93;;;31.77;;
5454;SDS011;2750;49.050;9.250;2022-12-18T00:47:23;66.53;;;31.90;;
5454;SDS011;2750;49.050;9.250;2022-12-18T00:52:26;70.10;;;33.37;;
5454;SDS011;2750;49.050;9.250;2022-12-18T00:57:27;61.90;;;29.57;;
5454;SDS011;2750;49.050;9.250;2022-12-18T01:02:28;56.90;;;28.57;;
5454;SDS011;2750;49.050;9.250;2022-12-18T01:07:31;54.17;;;27.70;;
5454;SDS011;2750;49.050;9.250;2022-12-18T01:12:33;60.67;;;30.37;;
5454;SDS011;2750;49.050;9.250;2022-12-18T01:17:35;68.23;;;32.87;;
5454;SDS011;2750;49.050;9.250;2022-12-18T01:22:38;67.40;;;30.93;;
5454;SDS011;2750;49.050;9.250;2022-12-18T01:27:39;58.33;;;30.80;;
5454;SDS011;2750;49.050;9.250;2022-12-18T01:32:41;55.83;;;31.27;;
5454;SDS011;2750;49.050;9.250;2022-12-18T01:37:44;55.70;;;29.33;;
5454;SDS011;2750;49.050;9.250;2022-12-18T01:42:48;60.10;;;28.93;;
5454;SDS011;2750;49.050;9.250;2022-12-18T01:47:52;50.53;;;26.87;;
5454;SDS011;2750;49.050;9.250;2022-12-18T01:52:58;44.07;;;22.03;;
5454;SDS011;2750;49.050;9.250;2022-12-18T01:58:01;42.80;;;21.40;;
5454;SDS011;2750;49.050;9.250;2022-12-18T02:03:03;41.73;;;21.03;;
5454;SDS011;2750;49.050;9.250;2022-12-18T02:08:08;40.03;;;20.03;;
5454;SDS011;2750;49.050;9.250;2022-12-18T02:13:14;45.43;;;22.40;;
5454;SDS011;2750;49.050;9.250;2022-12-18T02:18:22;50.03;;;22.27;;
5454;SDS011;2750;49.050;9.250;2022-12-18T02:23:39;42.87;;;22.20;;
5454;SDS011;2750;49.050;9.250;2022-12-18T02:28:51;47.80;;;23.67;;
5454;SDS011;2750;49.050;9.250;2022-12-18T02:33:56;44.53;;;21.40;;
5454;SDS011;2750;49.050;9.250;2022-12-18T02:39:01;53.03;;;25.23;;
5454;SDS011;2750;49.050;9.250;2022-12-18T02:44:08;60.87;;;26.83;;
5454;SDS011;2750;49.050;9.250;2022-12-18T02:49:13;48.00;;;25.07;;
5454;SDS011;2750;49.050;9.250;2022-12-18T02:54:28;51.90;;;24.87;;
5454;SDS011;2750;49.050;9.250;2022-12-18T02:59:44;54.27;;;25.23;;
5454;SDS011;2750;49.050;9.250;2022-12-18T03:04:53;42.80;;;21.83;;
5454;SDS011;2750;49.050;9.250;2022-12-18T03:10:00;44.53;;;21.57;;
5454;SDS011;2750;49.050;9.250;2022-12-18T03:15:04;50.70;;;22.93;;
5454;SDS011;2750;49.050;9.250;2022-12-18T03:20:12;48.53;;;21.67;;
5454;SDS011;2750;49.050;9.250;2022-12-18T03:25:15;44.47;;;22.90;;
5454;SDS011;2750;49.050;9.250;2022-12-18T03:30:21;49.80;;;22.60;;
5454;SDS011;2750;49.050;9.250;2022-12-18T03:35:24;47.63;;;22.23;;
5454;SDS011;2750;49.050;9.250;2022-12-18T03:40:31;48.60;;;24.73;;
5454;SDS011;2750;49.050;9.250;2022-12-18T03:45:45;47.20;;;23.67;;
5454;SDS011;2750;49.050;9.250;2022-12-18T03:50:53;44.83;;;21.43;;
5454;SDS011;2750;49.050;9.250;2022-12-18T03:55:58;42.47;;;19.60;;
5454;SDS011;2750;49.050;9.250;2022-12-18T04:01:02;40.67;;;21.37;;
5454;SDS011;2750;49.050;9.250;2022-12-18T04:06:08;39.50;;;22.47;;
5454;SDS011;2750;49.050;9.250;2022-12-18T04:11:11;47.93;;;24.00;;
5454;SDS011;2750;49.050;9.250;2022-12-18T04:16:14;54.87;;;28.37;;
5454;SDS011;2750;49.050;9.250;2022-12-18T04:21:15;47.97;;;24.07;;
5454;SDS011;2750;49.050;9.250;2022-12-18T04:26:16;51.33;;;24.50;;
5454;SDS011;2750;49.050;9.250;2022-12-18T04:31:19;49.50;;;23.23;;
5454;SDS011;2750;49.050;9.250;2022-12-18T04:36:21;56.17;;;24.50;;
5454;SDS011;2750;49.050;9.250;2022-12-18T04:41:22;54.73;;;27.10;;
5454;SDS011;2750;49.050;9.250;2022-12-18T04:46:25;53.07;;;24.37;;
5454;SDS011;2750;49.050;9.250;2022-12-18T04:51:27;53.50;;;24.73;;
5454;SDS011;2750;49.050;9.250;2022-12-18T04:56:30;50.77;;;22.17;;
5454;SDS011;2750;49.050;9.250;2022-12-18T05:01:34;45.27;;;21.90;;
5454;SDS011;2750;49.050;9.250;2022-12-18T05:06:35;40.30;;;22.73;;
5454;SDS011;2750;49.050;9.250;2022-12-18T05:11:37;41.67;;;21.13;;
5454;SDS011;2750;49.050;9.250;2022-12-18T05:16:40;43.63;;;22.60;;
5454;SDS011;2750;49.050;9.250;2022-12-18T05:21:41;54.83;;;27.43;;
5454;SDS011;2750;49.050;9.250;2022-12-18T05:26:43;49.43;;;24.87;;
5454;SDS011;2750;49.050;9.250;2022-12-18T05:31:46;55.53;;;23.03;;
5454;SDS011;2750;49.050;9.250;2022-12-18T05:36:47;45.43;;;23.13;;
5454;SDS011;2750;49.050;9.250;2022-12-18T05:41:49;49.70;;;24.47;;
5454;SDS011;2750;49.050;9.250;2022-12-18T05:46:52;48.57;;;23.17;;
5454;SDS011;2750;49.050;9.250;2022-12-18T05:51:53;46.03;;;21.03;;
5454;SDS011;2750;49.050;9.250;2022-12-18T05:56:55;44.33;;;21.90;;
5454;SDS011;2750;49.050;9.250;2022-12-18T06:01:58;41.50;;;21.57;;
5454;SDS011;2750;49.050;9.250;2022-12-18T06:06:59;51.73;;;23.23;;
5454;SDS011;2750;49.050;9.250;2022-12-18T06:12:01;48.63;;;22.47;;
5454;SDS011;2750;49.050;9.250;2022-12-18T06:17:04;48.37;;;23.70;;
5454;SDS011;2750;49.050;9.250;2022-12-18T06:22:05;44.60;;;22.13;;
5454;SDS011;2750;49.050;9.250;2022-12-18T06:27:07;44.17;;;20.53;;
5454;SDS011;2750;49.050;9.250;2022-12-18T06:32:10;45.40;;;20.93;;
5454;SDS011;2750;49.050;9.250;2022-12-18T06:37:11;38.40;;;19.53;;
5454;SDS011;2750;49.050;9.250;2022-12-18T06:42:13;44.93;;;21.10;;
5454;SDS011;2750;49.050;9.250;2022-12-18T06:47:16;40.53;;;20.63;;
5454;SDS011;2750;49.050;9.250;2022-12-18T06:52:17;32.47;;;16.20;;
5454;SDS011;2750;49.050;9.250;2022-12-18T06:57:19;34.83;;;16.53;;
5454;SDS011;2750;49.050;9.250;2022-12-18T07:02:22;36.23;;;16.73;;
5454;SDS011;2750;49.050;9.250;2022-12-18T07:07:24;34.53;;;16.30;;
5454;SDS011;2750;49.050;9.250;2022-12-18T07:12:26;48.63;;;20.43;;
5454;SDS011;2750;49.050;9.250;2022-12-18T07:17:29;33.97;;;17.33;;
5454;SDS011;2750;49.050;9.250;2022-12-18T07:22:30;43.10;;;21.57;;
5454;SDS011;2750;49.050;9.250;2022-12-18T07:27:32;35.60;;;17.80;;
5454;SDS011;2750;49.050;9.250;2022-12-18T07:32:35;26.87;;;14.50;;
5454;SDS011;2750;49.050;9.250;2022-12-18T07:37:36;29.20;;;17.53;;
5454;SDS011;2750;49.050;9.250;2022-12-18T07:42:38;34.70;;;18.63;;
5454;SDS011;2750;49.050;9.250;2022-12-18T07:47:40;31.10;;;16.53;;
5454;SDS011;2750;49.050;9.250;2022-12-18T07:52:42;34.17;;;16.10;;
5454;SDS011;2750;49.050;9.250;2022-12-18T07:57:44;42.33;;;21.13;;
5454;SDS011;2750;49.050;9.250;2022-12-18T08:02:47;38.90;;;21.20;;
5454;SDS011;2750;49.050;9.250;2022-12-18T08:07:48;41.23;;;18.97;;
5454;SDS011;2750;49.050;9.250;2022-12-18T08:12:50;34.27;;;18.63;;
5454;SDS011;2750;49.050;9.250;2022-12-18T08:17:54;43.00;;;21.67;;
5454;SDS011;2750;49.050;9.250;2022-12-18T08:22:57;39.83;;;20.80;;
5454;SDS011;2750;49.050;9.250;2022-12-18T08:27:58;31.77;;;16.80;;
5454;SDS011;2750;49.050;9.250;2022-12-18T08:33:01;43.70;;;21.83;;
5454;SDS011;2750;49.050;9.250;2022-12-18T08:38:03;44.03;;;22.80;;
5454;SDS011;2750;49.050;9.250;2022-12-18T08:43:05;48.33;;;22.97;;
5454;SDS011;2750;49.050;9.250;2022-12-18T08:48:25;71.50;;;33.50;;
5454;SDS011;2750;49.050;9.250;2022-12-18T08:53:27;49.60;;;28.97;;
5454;SDS011;2750;49.050;9.250;2022-12-18T08:58:29;53.43;;;26.90;;
5454;SDS011;2750;49.050;9.250;2022-12-18T09:03:32;52.53;;;28.87;;
5454;SDS011;2750;49.050;9.250;2022-12-18T09:08:34;56.60;;;27.67;;
5454;SDS011;2750;49.050;9.250;2022-12-18T09:13:36;50.77;;;26.93;;
5454;SDS011;2750;49.050;9.250;2022-12-18T09:18:39;58.13;;;28.20;;
5454;SDS011;2750;49.050;9.250;2022-12-18T09:23:40;56.07;;;27.60;;
5454;SDS011;2750;49.050;9.250;2022-12-18T09:28:42;63.87;;;31.73;;
5454;SDS011;2750;49.050;9.250;2022-12-18T09:33:46;53.67;;;25.80;;
5454;SDS011;2750;49.050;9.250;2022-12-18T09:38:47;47.33;;;24.53;;
5454;SDS011;2750;49.050;9.250;2022-12-18T09:43:50;46.37;;;24.13;;
5454;SDS011;2750;49.050;9.250;2022-12-18T09:48:57;42.07;;;18.93;;
5454;SDS011;2750;49.050;9.250;2022-12-18T09:54:03;47.00;;;19.20;;
5454;SDS011;2750;49.050;9.250;2022-12-18T09:59:13;40.57;;;19.53;;
5454;SDS011;2750;49.050;9.250;2022-12-18T10:04:23;46.00;;;20.97;;
5454;SDS011;2750;49.050;9.250;2022-12-18T10:09:27;44.23;;;19.67;;
5454;SDS011;2750;49.050;9.250;2022-12-18T10:14:36;44.00;;;21.20;;
5454;SDS011;2750;49.050;9.250;2022-12-18T10:19:49;42.73;;;22.80;;
5454;SDS011;2750;49.050;9.250;2022-12-18T10:24:55;46.87;;;22.27;;
5454;SDS011;2750;49.050;9.250;2022-12-18T10:30:04;43.50;;;19.87;;
5454;SDS011;2750;49.050;9.250;2022-12-18T10:35:17;42.90;;;20.57;;
5454;SDS011;2750;49.050;9.250;2022-12-18T10:40:20;47.00;;;21.00;;
5454;SDS011;2750;49.050;9.250;2022-12-18T10:45:23;42.07;;;21.60;;
5454;SDS011;2750;49.050;9.250;2022-12-18T10:50:28;47.23;;;20.33;;
5454;SDS011;2750;49.050;9.250;2022-12-18T10:55:33;40.63;;;20.13;;
5454;SDS011;2750;49.050;9.250;2022-12-18T11:00:37;40.87;;;19.87;;
5454;SDS011;2750;49.050;9.250;2022-12-18T11:05:40;46.03;;;20.07;;
5454;SDS011;2750;49.050;9.250;2022-12-18T11:10:44;40.73;;;19.83;;
5454;SDS011;2750;49.050;9.250;2022-12-18T11:15:48;37.63;;;20.33;;
5454;SDS011;2750;49.050;9.250;2022-12-18T11:20:52;42.07;;;19.37;;
5454;SDS011;2750;49.050;9.250;2022-12-18T11:25:56;39.60;;;20.20;;
5454;SDS011;2750;49.050;9.250;2022-12-18T11:31:10;35.23;;;18.73;;
5454;SDS011;2750;49.050;9.250;2022-12-18T11:36:19;43.20;;;21.50;;
5454;SDS011;2750;49.050;9.250;2022-12-18T11:41:24;33.10;;;17.37;;
5454;SDS011;2750;49.050;9.250;2022-12-18T11:46:51;37.93;;;18.00;;
5454;SDS011;2750;49.050;9.250;2022-12-18T11:51:58;42.17;;;20.17;;
5454;SDS011;2750;49.050;9.250;2022-12-18T11:57:06;37.73;;;19.47;;
5454;SDS011;2750;49.050;9.250;2022-12-18T12:02:25;39.07;;;19.53;;
5454;SDS011;2750;49.050;9.250;2022-12-18T12:07:42;35.40;;;19.20;;
5454;SDS011;2750;49.050;9.250;2022-12-18T12:12:55;35.13;;;19.27;;
5454;SDS011;2750;49.050;9.250;2022-12-18T12:18:08;35.07;;;17.63;;
5454;SDS011;2750;49.050;9.250;2022-12-18T12:23:26;33.57;;;17.63;;
5454;SDS011;2750;49.050;9.250;2022-12-18T12:28:47;31.83;;;17.73;;
5454;SDS011;2750;49.050;9.250;2022-12-18T12:33:57;36.43;;;17.40;;
5454;SDS011;2750;49.050;9.250;2022-12-18T12:39:07;29.73;;;17.43;;
5454;SDS011;2750;49.050;9.250;2022-12-18T12:44:14;36.80;;;18.33;;
5454;SDS011;2750;49.050;9.250;2022-12-18T12:49:20;32.87;;;17.33;;
5454;SDS011;2750;49.050;9.250;2022-12-18T12:54:28;33.60;;;18.13;;
5454;SDS011;2750;49.050;9.250;2022-12-18T12:59:34;34.93;;;17.47;;
5454;SDS011;2750;49.050;9.250;2022-12-18T13:04:45;26.57;;;16.03;;
5454;SDS011;2750;49.050;9.250;2022-12-18T13:15:30;31.43;;;18.43;;
5454;SDS011;2750;49.050;9.250;2022-12-18T13:20:35;31.17;;;18.40;;
5454;SDS011;2750;49.050;9.250;2022-12-18T13:25:40;34.27;;;19.47;;
5454;SDS011;2750;49.050;9.250;2022-12-18T13:30:46;30.67;;;16.67;;
5454;SDS011;2750;49.050;9.250;2022-12-18T13:35:52;30.33;;;16.27;;
5454;SDS011;2750;49.050;9.250;2022-12-18T13:41:03;33.77;;;18.37;;
5454;SDS011;2750;49.050;9.250;2022-12-18T13:46:23;33.53;;;17.67;;
5454;SDS011;2750;49.050;9.250;2022-12-18T13:51:26;32.00;;;17.33;;
5454;SDS011;2750;49.050;9.250;2022-12-18T13:56:32;34.00;;;17.07;;
5454;SDS011;2750;49.050;9.250;2022-12-18T14:01:34;35.57;;;17.47;;
5454;SDS011;2750;49.050;9.250;2022-12-18T14:06:36;28.47;;;15.33;;
5454;SDS011;2750;49.050;9.250;2022-12-18T14:11:39;34.07;;;19.23;;
5454;SDS011;2750;49.050;9.250;2022-12-18T14:16:40;33.53;;;18.37;;
5454;SDS011;2750;49.050;9.250;2022-12-18T14:21:45;36.17;;;18.97;;
5454;SDS011;2750;49.050;9.250;2022-12-18T14:26:49;33.20;;;18.30;;
5454;SDS011;2750;49.050;9.250;2022-12-18T14:32:09;35.27;;;17.70;;
5454;SDS011;2750;49.050;9.250;2022-12-18T14:37:13;34.20;;;20.17;;
5454;SDS011;2750;49.050;9.250;2022-12-18T14:42:16;36.37;;;19.67;;
5454;SDS011;2750;49.050;9.250;2022-12-18T14:47:18;36.47;;;19.13;;
5454;SDS011;2750;49.050;9.250;2022-12-18T14:52:21;38.33;;;19.17;;
5454;SDS011;2750;49.050;9.250;2022-12-18T14:57:29;36.97;;;19.87;;
5454;SDS011;2750;49.050;9.250;2022-12-18T15:02:37;36.43;;;18.53;;
5454;SDS011;2750;49.050;9.250;2022-12-18T15:07:40;34.53;;;16.90;;
5454;SDS011;2750;49.050;9.250;2022-12-18T15:12:44;34.37;;;19.20;;
5454;SDS011;2750;49.050;9.250;2022-12-18T15:17:47;35.57;;;18.97;;
5454;SDS011;2750;49.050;9.250;2022-12-18T15:22:48;36.00;;;18.27;;
5454;SDS011;2750;49.050;9.250;2022-12-18T15:27:51;31.23;;;17.70;;
5454;SDS011;2750;49.050;9.250;2022-12-18T15:38:24;32.60;;;18.30;;
5454;SDS011;2750;49.050;9.250;2022-12-18T15:43:28;35.77;;;18.00;;
5454;SDS011;2750;49.050;9.250;2022-12-18T15:48:38;35.73;;;18.50;;
5454;SDS011;2750;49.050;9.250;2022-12-18T15:53:41;34.37;;;17.70;;
5454;SDS011;2750;49.050;9.250;2022-12-18T15:58:44;37.07;;;20.27;;
5454;SDS011;2750;49.050;9.250;2022-12-18T16:03:46;34.47;;;18.63;;
5454;SDS011;2750;49.050;9.250;2022-12-18T16:08:47;29.40;;;17.63;;
5454;SDS011;2750;49.050;9.250;2022-12-18T16:13:51;33.93;;;17.17;;
5454;SDS011;2750;49.050;9.250;2022-12-18T16:18:52;35.53;;;19.33;;
5454;SDS011;2750;49.050;9.250;2022-12-18T16:23:54;38.07;;;18.63;;
5454;SDS011;2750;49.050;9.250;2022-12-18T16:28:56;37.03;;;18.10;;
5454;SDS011;2750;49.050;9.250;2022-12-18T16:34:11;39.97;;;19.97;;
5454;SDS011;2750;49.050;9.250;2022-12-18T16:39:13;51.47;;;25.47;;
5454;SDS011;2750;49.050;9.250;2022-12-18T16:44:16;42.93;;;20.07;;
5454;SDS011;2750;49.050;9.250;2022-12-18T16:49:18;37.00;;;19.63;;
5454;SDS011;2750;49.050;9.250;2022-12-18T16:54:20;37.20;;;18.97;;
5454;SDS011;2750;49.050;9.250;2022-12-18T16:59:23;33.83;;;19.30;;
5454;SDS011;2750;49.050;9.250;2022-12-18T17:04:25;40.70;;;18.70;;
5454;SDS011;2750;49.050;9.250;2022-12-18T17:09:27;32.77;;;19.17;;
5454;SDS011;2750;49.050;9.250;2022-12-18T17:14:30;34.30;;;18.53;;
5454;SDS011;2750;49.050;9.250;2022-12-18T17:19:32;38.87;;;20.93;;
5454;SDS011;2750;49.050;9.250;2022-12-18T17:24:34;35.20;;;19.87;;
5454;SDS011;2750;49.050;9.250;2022-12-18T17:29:37;37.07;;;20.27;;
5454;SDS011;2750;49.050;9.250;2022-12-18T17:34:38;38.93;;;20.90;;
5454;SDS011;2750;49.050;9.250;2022-12-18T17:39:40;40.60;;;21.03;;
5454;SDS011;2750;49.050;9.250;2022-12-18T17:44:43;37.87;;;19.07;;
5454;SDS011;2750;49.050;9.250;2022-12-18T17:49:45;36.97;;;18.43;;
5454;SDS011;2750;49.050;9.250;2022-12-18T17:54:46;34.00;;;19.10;;
5454;SDS011;2750;49.050;9.250;2022-12-18T17:59:49;34.97;;;18.67;;
5454;SDS011;2750;49.050;9.250;2022-12-18T18:04:50;32.03;;;16.43;;
5454;SDS011;2750;49.050;9.250;2022-12-18T18:09:52;33.30;;;18.20;;
5454;SDS011;2750;49.050;9.250;2022-12-18T18:14:55;33.33;;;17.40;;
5454;SDS011;2750;49.050;9.250;2022-12-18T18:19:56;36.80;;;18.70;;
5454;SDS011;2750;49.050;9.250;2022-12-18T18:24:58;40.50;;;19.03;;
5454;SDS011;2750;49.050;9.250;2022-12-18T18:30:01;37.53;;;18.57;;
5454;SDS011;2750;49.050;9.250;2022-12-18T18:35:02;32.90;;;17.13;;
5454;SDS011;2750;49.050;9.250;2022-12-18T18:40:04;38.60;;;19.63;;
5454;SDS011;2750;49.050;9.250;2022-12-18T18:45:09;33.07;;;18.27;;
5454;SDS011;2750;49.050;9.250;2022-12-18T18:50:10;35.60;;;18.33;;
5454;SDS011;2750;49.050;9.250;2022-12-18T18:55:12;38.67;;;18.70;;
5454;SDS011;2750;49.050;9.250;2022-12-18T19:00:15;29.43;;;16.93;;
5454;SDS011;2750;49.050;9.250;2022-12-18T19:05:17;27.53;;;16.10;;
5454;SDS011;2750;49.050;9.250;2022-12-18T19:10:19;34.90;;;17.90;;
5454;SDS011;2750;49.050;9.250;2022-12-18T19:15:21;32.13;;;17.60;;
5454;SDS011;2750;49.050;9.250;2022-12-18T19:20:23;31.40;;;17.60;;
5454;SDS011;2750;49.050;9.250;2022-12-18T19:25:24;37.97;;;20.97;;
5454;SDS011;2750;49.050;9.250;2022-12-18T19:30:29;31.63;;;18.23;;
5454;SDS011;2750;49.050;9.250;2022-12-18T19:35:31;41.00;;;19.40;;
5454;SDS011;2750;49.050;9.250;2022-12-18T19:40:32;43.47;;;22.33;;
5454;SDS011;2750;49.050;9.250;2022-12-18T19:45:35;35.70;;;19.03;;
5454;SDS011;2750;49.050;9.250;2022-12-18T19:50:38;29.67;;;16.83;;
5454;SDS011;2750;49.050;9.250;2022-12-18T19:55:41;32.07;;;16.13;;
5454;SDS011;2750;49.050;9.250;2022-12-18T20:00:44;31.70;;;17.90;;
5454;SDS011;2750;49.050;9.250;2022-12-18T20:05:46;32.50;;;16.57;;
5454;SDS011;2750;49.050;9.250;2022-12-18T20:10:47;33.43;;;17.33;;
5454;SDS011;2750;49.050;9.250;2022-12-18T20:15:50;37.30;;;17.73;;
5454;SDS011;2750;49.050;9.250;2022-12-18T20:20:52;30.93;;;16.57;;
5454;SDS011;2750;49.050;9.250;2022-12-18T20:25:54;34.47;;;17.57;;
5454;SDS011;2750;49.050;9.250;2022-12-18T20:31:00;31.40;;;17.67;;
5454;SDS011;2750;49.050;9.250;2022-12-18T20:36:04;40.70;;;19.87;;
5454;SDS011;2750;49.050;9.250;2022-12-18T20:41:07;37.80;;;20.50;;
5454;SDS011;2750;49.050;9.250;2022-12-18T20:46:11;28.03;;;15.50;;
5454;SDS011;2750;49.050;9.250;2022-12-18T20:51:15;30.73;;;16.17;;
5454;SDS011;2750;49.050;9.250;2022-12-18T20:56:18;34.13;;;18.27;;
5454;SDS011;2750;49.050;9.250;2022-12-18T21:01:23;32.57;;;17.57;;
5454;SDS011;2750;49.050;9.250;2022-12-18T21:06:25;30.07;;;15.40;;
5454;SDS011;2750;49.050;9.250;2022-12-18T21:11:27;30.47;;;15.60;;
5454;SDS011;2750;49.050;9.250;2022-12-18T21:16:49;31.70;;;16.27;;
5454;SDS011;2750;49.050;9.250;2022-12-18T21:21:51;29.67;;;15.17;;
5454;SDS011;2750;49.050;9.250;2022-12-18T21:26:53;32.20;;;16.07;;
5454;SDS011;2750;49.050;9.250;2022-12-18T21:31:56;27.83;;;16.17;;
5454;SDS011;2750;49.050;9.250;2022-12-18T21:36:58;32.67;;;15.47;;
5454;SDS011;2750;49.050;9.250;2022-12-18T21:42:01;29.20;;;16.27;;
5454;SDS011;2750;49.050;9.250;2022-12-18T21:47:22;27.77;;;15.97;;
5454;SDS011;2750;49.050;9.250;2022-12-18T21:52:23;53.17;;;26.17;;
5454;SDS011;2750;49.050;9.250;2022-12-18T21:57:25;28.87;;;16.53;;
5454;SDS011;2750;49.050;9.250;2022-12-18T22:02:28;32.87;;;17.17;;
5454;SDS011;2750;49.050;9.250;2022-12-18T22:07:30;34.53;;;18.07;;
5454;SDS011;2750;49.050;9.250;2022-12-18T22:12:32;33.70;;;17.93;;
5454;SDS011;2750;49.050;9.250;2022-12-18T22:17:37;35.27;;;18.60;;
5454;SDS011;2750;49.050;9.250;2022-12-18T22:22:39;33.67;;;18.33;;
5454;SDS011;2750;49.050;9.250;2022-12-18T22:27:40;29.83;;;17.03;;
5454;SDS011;2750;49.050;9.250;2022-12-18T22:32:43;36.17;;;19.73;;
5454;SDS011;2750;49.050;9.250;2022-12-18T22:37:45;36.87;;;19.47;;
5454;SDS011;2750;49.050;9.250;2022-12-18T22:42:46;30.90;;;17.93;;
5454;SDS011;2750;49.050;9.250;2022-12-18T22:47:49;34.50;;;18.93;;
5454;SDS011;2750;49.050;9.250;2022-12-18T22:52:51;37.13;;;20.50;;
5454;SDS011;2750;49.050;9.250;2022-12-18T22:57:52;32.50;;;17.87;;
5454;SDS011;2750;49.050;9.250;2022-12-18T23:02:55;34.10;;;20.03;;
5454;SDS011;2750;49.050;9.250;2022-12-18T23:07:57;36.63;;;19.73;;
5454;SDS011;2750;49.050;9.250;2022-12-18T23:12:59;30.73;;;19.53;;
5454;SDS011;2750;49.050;9.250;2022-12-18T23:18:01;35.80;;;17.67;;
5454;SDS011;2750;49.050;9.250;2022-12-18T23:23:03;31.33;;;18.47;;
5454;SDS011;2750;49.050;9.250;2022-12-18T23:28:05;38.87;;;19.00;;
5454;SDS011;2750;49.050;9.250;2022-12-18T23:33:08;38.37;;;19.37;;
5454;SDS011;2750;49.050;9.250;2022-12-18T23:38:09;38.87;;;20.07;;
5454;SDS011;2750;49.050;9.250;2022-12-18T23:43:11;37.83;;;18.80;;
5454;SDS011;2750;49.050;9.250;2022-12-18T23:48:14;36.37;;;18.70;;
5454;SDS011;2750;49.050;9.250;2022-12-18T23:53:15;38.73;;;20.77;;
5454;SDS011;2750;49.050;9.250;2022-12-18T23:58:17;38.10;;;19.40;;
